Time;durP1;ratioP1;P1;durP2;ratioP2;P2;SDS_P1;SDS_P2;PMS_P1;PMS_P2;Temp;Humidity;BMP_temperature;BMP_pressure;BME280_temperature;BME280_humidity;BME280_pressure;Samples;Min_cycle;Max_cycle;Signal;HPM_P1;HPM_P2
2022/11/02 00:00:52;;;;;;;11.52;3.05;;;12.90;99.90;;;;;;4945624;28;20100;-81
2022/11/02 00:03:18;;;;;;;11.13;2.53;;;13.00;99.90;;;;;;4934192;28;20074;-81
2022/11/02 00:05:44;;;;;;;10.77;3.33;;;12.90;99.90;;;;;;4950806;28;22224;-81
2022/11/02 00:08:09;;;;;;;6.00;2.10;;;12.90;99.90;;;;;;4949576;28;20042;-80
2022/11/02 00:10:35;;;;;;;6.40;2.13;;;12.90;99.90;;;;;;4951654;28;20039;-81
2022/11/02 00:13:01;;;;;;;9.50;3.08;;;12.80;99.90;;;;;;4965984;28;20043;-81
2022/11/02 00:15:30;;;;;;;6.72;2.15;;;12.70;99.90;;;;;;4949325;28;20502;-81
2022/11/02 00:18:10;;;;;;;6.97;2.17;;;12.50;99.90;;;;;;4966296;28;20082;-80
2022/11/02 00:20:38;;;;;;;10.48;2.22;;;12.50;99.90;;;;;;4973943;28;20047;-81
2022/11/02 00:23:06;;;;;;;7.95;2.28;;;12.40;99.90;;;;;;4981447;28;20047;-81
2022/11/02 00:25:32;;;;;;;8.48;2.40;;;12.30;99.90;;;;;;4964232;28;20077;-81
2022/11/02 00:27:58;;;;;;;7.93;2.13;;;12.30;99.90;;;;;;4964657;28;20038;-81
2022/11/02 00:30:24;;;;;;;12.80;2.25;;;12.30;99.90;;;;;;4968680;28;20218;-81
2022/11/02 00:32:50;;;;;;;10.27;2.10;;;12.20;99.90;;;;;;4953209;28;20683;-81
2022/11/02 00:35:16;;;;;;;7.38;1.90;;;12.20;99.90;;;;;;4939151;28;20041;-81
2022/11/02 00:37:42;;;;;;;9.20;2.70;;;12.20;99.90;;;;;;4938251;28;20118;-81
2022/11/02 00:40:08;;;;;;;8.77;2.42;;;12.20;99.90;;;;;;4939672;28;20098;-81
2022/11/02 00:42:34;;;;;;;8.00;2.65;;;11.40;99.90;;;;;;4954327;28;20049;-81
2022/11/02 00:44:59;;;;;;;9.95;2.65;;;12.10;99.90;;;;;;4968793;28;20121;-81
2022/11/02 00:47:25;;;;;;;11.73;2.55;;;12.10;99.90;;;;;;4953302;28;20062;-81
2022/11/02 00:49:51;;;;;;;12.23;2.35;;;12.10;99.90;;;;;;4951742;28;20101;-81
2022/11/02 00:52:16;;;;;;;7.50;2.58;;;12.10;99.90;;;;;;4952389;28;20039;-81
2022/11/02 00:54:43;;;;;;;9.43;2.47;;;12.10;99.90;;;;;;4938877;28;20043;-80
2022/11/02 00:57:08;;;;;;;10.90;2.50;;;12.10;99.90;;;;;;4967175;28;20055;-81
2022/11/02 00:59:34;;;;;;;10.48;3.05;;;12.10;99.90;;;;;;4970654;28;20126;-81
2022/11/02 01:01:59;;;;;;;10.98;2.85;;;12.10;99.90;;;;;;4951152;28;20126;-81
2022/11/02 01:04:25;;;;;;;11.07;3.80;;;12.10;99.90;;;;;;4940951;28;20038;-81
2022/11/02 01:06:51;;;;;;;7.30;2.75;;;12.00;99.90;;;;;;4937422;28;20038;-81
2022/11/02 01:09:16;;;;;;;11.55;3.17;;;12.00;99.90;;;;;;4953737;28;20047;-81
2022/11/02 01:11:42;;;;;;;6.90;2.42;;;11.90;99.90;;;;;;4953127;28;20046;-81
2022/11/02 01:14:09;;;;;;;9.95;2.80;;;11.90;99.90;;;;;;4936401;28;20066;-81
2022/11/02 01:16:34;;;;;;;17.23;3.63;;;11.90;99.90;;;;;;4968050;28;20027;-81
2022/11/02 01:19:00;;;;;;;12.88;2.95;;;11.90;99.90;;;;;;4937680;28;20101;-81
2022/11/02 01:21:26;;;;;;;11.13;3.22;;;11.90;99.90;;;;;;4953915;28;20062;-81
2022/11/02 01:23:54;;;;;;;8.07;2.47;;;11.90;99.90;;;;;;4953180;28;20117;-81
2022/11/02 01:26:19;;;;;;;14.40;3.60;;;11.90;99.90;;;;;;4953012;28;20065;-81
2022/11/02 01:28:45;;;;;;;12.35;2.75;;;11.90;99.90;;;;;;4938080;28;20527;-80
2022/11/02 01:31:11;;;;;;;10.00;2.50;;;11.90;99.90;;;;;;4936803;28;20043;-80
2022/11/02 01:33:41;;;;;;;14.27;3.20;;;12.00;99.90;;;;;;4984194;28;20225;-81
2022/11/02 01:36:07;;;;;;;12.60;2.65;;;12.00;99.90;;;;;;4970307;28;20043;-81
2022/11/02 01:38:33;;;;;;;11.32;3.08;;;12.10;99.90;;;;;;4936843;28;20046;-80
2022/11/02 01:40:59;;;;;;;8.23;2.78;;;12.30;99.90;;;;;;4966010;28;20093;-81
2022/11/02 01:43:30;;;;;;;6.03;2.35;;;12.30;99.90;;;;;;4953363;28;20537;-80
2022/11/02 01:46:05;;;;;;;16.35;3.92;;;12.30;99.90;;;;;;4968929;28;20113;-81
2022/11/02 01:48:35;;;;;;;9.75;2.30;;;12.40;99.90;;;;;;4968124;28;20097;-81
2022/11/02 01:51:05;;;;;;;5.53;2.08;;;12.40;99.90;;;;;;4950828;28;20488;-81
2022/11/02 01:53:34;;;;;;;6.18;2.42;;;12.40;99.90;;;;;;4967009;28;20039;-81
2022/11/02 01:56:00;;;;;;;12.60;2.83;;;12.40;99.90;;;;;;4984843;28;20039;-81
2022/11/02 01:58:26;;;;;;;15.23;2.85;;;12.40;99.90;;;;;;4968050;28;20201;-81
2022/11/02 02:00:53;;;;;;;11.52;3.05;;;12.50;99.90;;;;;;4935423;28;20122;-81
2022/11/02 02:03:20;;;;;;;12.32;2.95;;;12.50;99.90;;;;;;4967635;28;20145;-81
2022/11/02 02:05:56;;;;;;;12.77;2.80;;;12.60;99.90;;;;;;4957147;28;20034;-81
2022/11/02 02:08:24;;;;;;;11.13;2.85;;;12.60;99.90;;;;;;4968287;28;21450;-81
2022/11/02 02:10:50;;;;;;;9.00;2.60;;;12.60;99.90;;;;;;4978247;28;20043;-80
2022/11/02 02:13:17;;;;;;;9.13;2.60;;;12.60;99.90;;;;;;4952610;28;20459;-81
2022/11/02 02:16:08;;;;;;;10.68;2.78;;;12.60;99.90;;;;;;4951184;28;20508;-80
2022/11/02 02:18:36;;;;;;;12.48;3.13;;;12.60;99.90;;;;;;4967282;28;20055;-81
2022/11/02 02:21:26;;;;;;;12.00;3.35;;;12.70;99.90;;;;;;4951964;28;20057;-81
2022/11/02 02:24:16;;;;;;;11.38;2.70;;;12.60;99.90;;;;;;4968131;28;20043;-81
2022/11/02 02:27:00;;;;;;;8.40;3.15;;;12.60;99.90;;;;;;4968155;28;20094;-81
2022/11/02 02:29:37;;;;;;;12.52;2.72;;;12.60;99.90;;;;;;4950492;28;20053;-81
2022/11/02 02:32:08;;;;;;;7.40;2.00;;;12.60;99.90;;;;;;4953039;28;20556;-80
2022/11/02 02:34:42;;;;;;;13.68;2.70;;;12.60;99.90;;;;;;4967474;28;20101;-80
2022/11/02 02:37:17;;;;;;;10.27;2.13;;;12.60;99.90;;;;;;4967844;28;20049;-81
2022/11/02 02:39:54;;;;;;;7.97;2.80;;;12.60;99.90;;;;;;4952166;28;20381;-80
2022/11/02 02:42:30;;;;;;;6.60;2.25;;;12.60;99.90;;;;;;4961571;28;20035;-81
2022/11/02 02:45:16;;;;;;;16.35;3.08;;;12.60;99.90;;;;;;4967614;28;20074;-80
2022/11/02 02:47:53;;;;;;;17.75;3.80;;;12.50;99.90;;;;;;4968096;28;20046;-80
2022/11/02 02:50:25;;;;;;;17.60;3.42;;;12.40;99.90;;;;;;4949081;28;20038;-82
2022/11/02 02:52:52;;;;;;;10.82;2.80;;;12.20;99.90;;;;;;4968474;28;20047;-82
2022/11/02 02:55:23;;;;;;;11.60;3.35;;;12.00;99.90;;;;;;4968105;28;20121;-82
2022/11/02 02:57:50;;;;;;;9.65;3.10;;;11.80;99.90;;;;;;4949755;28;20039;-81
2022/11/02 03:00:17;;;;;;;17.02;3.33;;;11.70;99.90;;;;;;4951081;28;20038;-81
2022/11/02 03:02:59;;;;;;;10.80;3.08;;;11.60;99.90;;;;;;4936509;28;20035;-82
2022/11/02 03:05:36;;;;;;;9.13;2.92;;;11.50;99.90;;;;;;4953901;28;20142;-82
2022/11/02 03:08:14;;;;;;;9.40;2.92;;;11.50;99.90;;;;;;4951880;28;20066;-82
2022/11/02 03:10:47;;;;;;;9.25;2.40;;;11.50;99.90;;;;;;4965997;28;20069;-82
2022/11/02 03:13:16;;;;;;;7.28;2.33;;;11.50;99.90;;;;;;4951291;28;20408;-82
2022/11/02 03:15:53;;;;;;;10.43;2.05;;;11.40;99.90;;;;;;4966423;28;20034;-81
2022/11/02 03:18:49;;;;;;;5.63;1.98;;;11.40;99.90;;;;;;4966372;28;20050;-82
2022/11/02 03:21:32;;;;;;;11.07;2.03;;;11.40;99.90;;;;;;4966442;28;20067;-82
2022/11/02 03:24:11;;;;;;;5.20;1.92;;;11.40;99.90;;;;;;4967525;28;20488;-81
2022/11/02 03:27:04;;;;;;;5.53;1.90;;;11.40;99.90;;;;;;4950342;28;20125;-82
2022/11/02 03:30:07;;;;;;;4.25;1.23;;;11.30;99.90;;;;;;4949632;28;20048;-82
2022/11/02 03:33:01;;;;;;;5.10;1.17;;;11.20;99.90;;;;;;4948711;28;20704;-82
2022/11/02 03:35:32;;;;;;;3.55;1.13;;;11.10;99.90;;;;;;4976370;28;20057;-82
2022/11/02 03:38:04;;;;;;;3.33;1.10;;;11.00;99.90;;;;;;4951303;28;20452;-82
2022/11/02 03:40:40;;;;;;;7.68;1.30;;;10.90;99.90;;;;;;4966564;28;20035;-81
2022/11/02 03:43:07;;;;;;;2.55;1.00;;;10.90;99.90;;;;;;4951406;28;20051;-81
2022/11/02 03:45:40;;;;;;;5.38;1.30;;;10.80;99.90;;;;;;4948238;28;20574;-80
2022/11/02 03:48:11;;;;;;;4.53;1.48;;;10.80;99.90;;;;;;4967200;28;20313;-80
2022/11/02 03:50:43;;;;;;;7.70;1.42;;;10.80;99.90;;;;;;4950320;28;20137;-81
2022/11/02 03:53:20;;;;;;;5.90;1.17;;;10.70;99.90;;;;;;4966159;28;20106;-81
2022/11/02 03:55:51;;;;;;;4.32;1.30;;;10.80;99.90;;;;;;4950460;28;20054;-81
2022/11/02 03:58:17;;;;;;;4.05;1.33;;;10.80;99.90;;;;;;4963211;28;20054;-81
2022/11/02 04:00:51;;;;;;;7.57;1.73;;;10.90;99.90;;;;;;4950354;28;20046;-81
2022/11/02 04:03:19;;;;;;;6.10;1.33;;;10.90;99.90;;;;;;4965359;28;20077;-81
2022/11/02 04:05:45;;;;;;;12.88;2.67;;;10.80;99.90;;;;;;4948517;28;20043;-82
2022/11/02 04:08:20;;;;;;;5.18;1.58;;;10.90;99.90;;;;;;4951886;28;20049;-81
2022/11/02 04:16:20;;;;;;;7.55;1.83;;;10.70;99.90;;;;;;4969203;28;20416;-82
2022/11/02 04:21:30;;;;;;;9.43;2.08;;;10.70;99.90;;;;;;4962657;28;20058;-81
2022/11/02 04:26:40;;;;;;;6.85;1.73;;;10.70;99.90;;;;;;4968387;28;20106;-82
2022/11/02 04:29:06;;;;;;;8.98;2.10;;;10.80;99.90;;;;;;4934483;28;20050;-82
2022/11/02 04:31:31;;;;;;;8.80;2.00;;;10.80;99.90;;;;;;4949290;28;20482;-81
2022/11/02 04:33:58;;;;;;;6.20;1.90;;;10.80;99.90;;;;;;4979867;28;20115;-82
2022/11/02 04:36:24;;;;;;;5.38;1.90;;;10.80;99.90;;;;;;4966214;28;20050;-81
2022/11/02 04:38:50;;;;;;;10.02;1.92;;;10.90;99.90;;;;;;4951430;28;20480;-82
2022/11/02 04:44:03;;;;;;;11.07;2.70;;;10.80;99.90;;;;;;4965039;28;20555;-82
2022/11/02 04:46:32;;;;;;;7.35;1.70;;;10.80;99.90;;;;;;4950680;28;20041;-82
2022/11/02 04:48:58;;;;;;;7.07;1.60;;;10.80;99.90;;;;;;4966831;28;20042;-81
2022/11/02 04:51:25;;;;;;;5.47;1.90;;;10.80;99.90;;;;;;4949582;28;20042;-82
2022/11/02 04:53:53;;;;;;;8.55;2.22;;;10.90;99.90;;;;;;4951353;28;20105;-81
2022/11/02 04:56:19;;;;;;;8.85;3.00;;;10.90;99.90;;;;;;4948032;28;20039;-82
2022/11/02 04:58:53;;;;;;;6.55;1.80;;;11.10;99.90;;;;;;4949856;28;20118;-82
2022/11/02 05:01:19;;;;;;;7.35;1.63;;;11.00;99.90;;;;;;4950045;28;20081;-81
2022/11/02 05:03:49;;;;;;;5.55;1.73;;;11.00;99.90;;;;;;4947796;28;20118;-82
2022/11/02 05:06:17;;;;;;;10.70;3.38;;;11.00;99.90;;;;;;4949654;28;20062;-82
2022/11/02 05:08:43;;;;;;;5.53;2.10;;;11.00;99.90;;;;;;4966842;28;20477;-81
2022/11/02 05:11:10;;;;;;;7.60;2.42;;;11.00;99.90;;;;;;4950785;28;20047;-82
2022/11/02 05:13:37;;;;;;;7.85;2.15;;;11.00;99.90;;;;;;4949858;28;20035;-81
2022/11/02 05:16:03;;;;;;;6.25;1.85;;;11.10;99.90;;;;;;4967942;28;20039;-81
2022/11/02 05:18:29;;;;;;;10.95;2.35;;;11.00;99.90;;;;;;4984389;28;20035;-82
2022/11/02 05:20:57;;;;;;;9.60;1.80;;;11.00;99.90;;;;;;4938194;28;20458;-81
2022/11/02 05:23:23;;;;;;;7.22;2.10;;;11.00;99.90;;;;;;4952958;28;20122;-82
2022/11/02 05:26:00;;;;;;;9.68;2.03;;;11.00;99.90;;;;;;4953473;28;20110;-81
2022/11/02 05:28:27;;;;;;;9.35;2.05;;;11.00;99.90;;;;;;4951740;28;20046;-81
2022/11/02 05:30:53;;;;;;;7.50;1.92;;;11.00;99.90;;;;;;4969409;28;20491;-81
2022/11/02 05:33:20;;;;;;;9.23;2.35;;;11.00;99.90;;;;;;4953836;28;20042;-81
2022/11/02 05:35:46;;;;;;;4.85;1.83;;;11.00;99.90;;;;;;4954479;28;20034;-81
2022/11/02 05:38:12;;;;;;;9.57;1.92;;;11.00;99.90;;;;;;4965837;28;20157;-81
2022/11/02 05:40:39;;;;;;;8.43;2.20;;;11.10;99.90;;;;;;4952965;28;20035;-82
2022/11/02 05:43:07;;;;;;;11.57;2.13;;;11.10;99.90;;;;;;4936778;28;21645;-81
2022/11/02 05:45:33;;;;;;;9.82;2.30;;;11.10;99.90;;;;;;4954902;28;20031;-81
2022/11/02 05:48:01;;;;;;;7.13;2.35;;;11.10;99.90;;;;;;4951101;28;20522;-81
2022/11/02 05:50:27;;;;;;;9.52;2.72;;;11.00;99.90;;;;;;4952007;28;20105;-82
2022/11/02 05:52:53;;;;;;;12.95;2.60;;;11.00;99.90;;;;;;4952486;28;20046;-80
2022/11/02 05:55:19;;;;;;;6.43;2.03;;;11.00;99.90;;;;;;4966996;28;20038;-81
2022/11/02 05:57:55;;;;;;;17.50;2.80;;;10.90;99.90;;;;;;4952886;28;20034;-81
2022/11/02 06:00:23;;;;;;;10.10;2.38;;;10.80;99.90;;;;;;4953763;28;20031;-82
2022/11/02 06:02:54;;;;;;;10.20;2.50;;;10.70;99.90;;;;;;4972662;28;20034;-82
2022/11/02 06:05:19;;;;;;;10.73;2.65;;;10.60;99.90;;;;;;4954649;28;20100;-81
2022/11/02 06:07:45;;;;;;;9.10;2.33;;;10.60;99.90;;;;;;4951157;28;20034;-81
2022/11/02 06:10:11;;;;;;;9.32;2.30;;;10.60;99.90;;;;;;4969145;28;20138;-81
2022/11/02 06:12:36;;;;;;;12.98;2.88;;;10.50;99.90;;;;;;4952045;28;20129;-84
2022/11/02 06:15:02;;;;;;;8.10;2.83;;;10.40;99.90;;;;;;4954430;28;20667;-85
2022/11/02 06:17:28;;;;;;;11.77;2.80;;;10.40;99.90;;;;;;4951750;28;20181;-85
2022/11/02 06:19:53;;;;;;;15.32;3.20;;;10.40;99.90;;;;;;4948517;28;20397;-85
2022/11/02 06:22:19;;;;;;;13.02;2.92;;;10.30;99.90;;;;;;4949634;28;20089;-85
2022/11/02 06:24:45;;;;;;;13.60;3.00;;;10.30;99.90;;;;;;4933897;28;20391;-85
2022/11/02 06:27:10;;;;;;;10.52;2.60;;;10.30;99.90;;;;;;4948340;28;20203;-83
2022/11/02 06:29:36;;;;;;;16.45;2.95;;;10.30;99.90;;;;;;4951589;28;20050;-84
2022/11/02 06:32:02;;;;;;;10.65;2.38;;;10.30;99.90;;;;;;4950848;28;20182;-84
2022/11/02 06:34:27;;;;;;;8.68;2.97;;;10.30;99.90;;;;;;4961122;28;20046;-84
2022/11/02 06:36:53;;;;;;;8.40;3.08;;;10.40;99.90;;;;;;4964923;28;20061;-84
2022/11/02 06:39:19;;;;;;;10.45;2.70;;;10.40;99.90;;;;;;4952158;28;20053;-84
2022/11/02 06:41:44;;;;;;;11.75;2.67;;;10.40;99.90;;;;;;4966597;28;20101;-84
2022/11/02 06:44:10;;;;;;;14.95;3.17;;;10.40;99.90;;;;;;4967946;28;20074;-83
2022/11/02 06:46:36;;;;;;;10.55;3.13;;;10.40;99.90;;;;;;4950562;28;20567;-86
2022/11/02 06:49:01;;;;;;;12.35;3.13;;;10.30;99.90;;;;;;4948371;28;20453;-84
2022/11/02 06:51:27;;;;;;;9.52;2.60;;;10.40;99.90;;;;;;4963073;28;20105;-84
2022/11/02 06:53:53;;;;;;;6.55;3.15;;;10.30;99.90;;;;;;4933363;28;20108;-84
2022/11/02 06:56:18;;;;;;;8.77;3.10;;;10.30;99.90;;;;;;4966527;28;20052;-84
2022/11/02 06:58:44;;;;;;;9.38;3.13;;;10.30;99.90;;;;;;4916496;28;20508;-84
2022/11/02 07:01:10;;;;;;;17.15;4.28;;;10.30;99.90;;;;;;4983276;28;20043;-84
2022/11/02 07:03:35;;;;;;;12.25;2.97;;;10.30;99.90;;;;;;4932403;28;20039;-84
2022/11/02 07:06:02;;;;;;;9.23;2.70;;;10.30;99.90;;;;;;4956118;28;20104;-85
2022/11/02 07:08:28;;;;;;;12.38;3.28;;;10.30;99.90;;;;;;4955008;28;20572;-84
2022/11/02 07:10:54;;;;;;;13.30;3.85;;;10.20;99.90;;;;;;4969701;28;20181;-84
2022/11/02 07:13:20;;;;;;;11.80;2.78;;;10.30;99.90;;;;;;4954501;28;20049;-86
2022/11/02 07:15:46;;;;;;;14.27;3.03;;;10.30;99.90;;;;;;4968396;28;20411;-87
2022/11/02 07:18:13;;;;;;;10.98;2.70;;;10.30;99.90;;;;;;4950910;28;20067;-84
2022/11/02 07:20:38;;;;;;;9.68;3.03;;;10.30;99.90;;;;;;4960282;28;20038;-84
2022/11/02 07:23:04;;;;;;;8.10;2.80;;;10.30;99.90;;;;;;4951176;28;20121;-84
2022/11/02 07:25:31;;;;;;;11.73;2.78;;;10.30;99.90;;;;;;4951100;28;20092;-85
2022/11/02 07:28:01;;;;;;;12.00;3.90;;;10.30;99.90;;;;;;4950912;28;20042;-85
2022/11/02 07:30:33;;;;;;;12.13;3.20;;;10.30;99.90;;;;;;4965298;28;20046;-84
2022/11/02 07:32:58;;;;;;;10.60;3.45;;;10.40;99.90;;;;;;4966332;28;20057;-86
2022/11/02 07:35:25;;;;;;;8.52;2.97;;;10.40;99.90;;;;;;4947144;28;20172;-85
2022/11/02 07:38:01;;;;;;;14.43;3.10;;;10.60;99.90;;;;;;4954784;28;20526;-85
2022/11/02 07:40:28;;;;;;;14.25;2.70;;;10.70;99.90;;;;;;4951668;28;20038;-84
2022/11/02 07:42:55;;;;;;;9.75;2.97;;;10.70;99.90;;;;;;4961331;28;20031;-84
2022/11/02 07:45:22;;;;;;;8.77;2.13;;;10.80;99.90;;;;;;4940610;28;20126;-86
2022/11/02 07:47:48;;;;;;;11.20;2.85;;;10.90;99.90;;;;;;4953400;28;20531;-86
2022/11/02 07:50:17;;;;;;;13.32;3.00;;;10.90;99.90;;;;;;4969383;28;20073;-85
2022/11/02 07:52:51;;;;;;;9.77;2.25;;;10.90;99.90;;;;;;4953191;28;20123;-85
2022/11/02 07:55:19;;;;;;;11.30;2.85;;;10.90;99.90;;;;;;4969650;28;20565;-85
2022/11/02 07:58:02;;;;;;;10.85;2.53;;;10.80;99.90;;;;;;4969484;28;20196;-86
2022/11/02 08:00:34;;;;;;;7.63;2.55;;;10.80;99.90;;;;;;4969249;28;20035;-86
2022/11/02 08:03:01;;;;;;;12.48;2.92;;;10.80;99.90;;;;;;4971569;28;20046;-85
2022/11/02 08:05:28;;;;;;;13.35;2.55;;;10.80;99.90;;;;;;4945651;28;20125;-86
2022/11/02 08:08:04;;;;;;;14.88;2.58;;;10.80;99.90;;;;;;4951322;28;20062;-87
2022/11/02 08:10:31;;;;;;;10.68;2.50;;;10.80;99.90;;;;;;4968940;28;20042;-86
2022/11/02 08:12:57;;;;;;;11.02;2.90;;;10.80;99.90;;;;;;4953212;28;20043;-86
2022/11/02 08:15:23;;;;;;;10.30;2.72;;;10.90;99.90;;;;;;4936594;28;20097;-85
2022/11/02 08:18:00;;;;;;;8.15;2.65;;;10.90;99.90;;;;;;4951155;28;20039;-85
2022/11/02 08:20:26;;;;;;;11.20;2.55;;;10.90;99.90;;;;;;4951751;28;20043;-85
2022/11/02 08:22:52;;;;;;;12.77;2.95;;;10.90;99.90;;;;;;4968609;28;20058;-86
2022/11/02 08:25:17;;;;;;;13.15;2.45;;;11.00;99.90;;;;;;4968921;28;20042;-86
2022/11/02 08:27:43;;;;;;;13.18;2.50;;;10.90;99.90;;;;;;4952848;28;20082;-85
2022/11/02 08:30:10;;;;;;;11.73;2.55;;;11.00;99.90;;;;;;4966689;28;20030;-85
2022/11/02 08:32:35;;;;;;;10.85;1.98;;;11.00;99.90;;;;;;4951811;28;20093;-85
2022/11/02 08:35:01;;;;;;;8.95;1.92;;;11.00;99.90;;;;;;4964676;28;20031;-85
2022/11/02 08:37:27;;;;;;;14.02;2.95;;;11.00;99.90;;;;;;4952757;28;20078;-85
2022/11/02 08:39:52;;;;;;;12.70;2.75;;;11.10;99.90;;;;;;4950469;28;20027;-85
2022/11/02 08:42:18;;;;;;;11.75;2.00;;;11.10;99.90;;;;;;4951489;28;20480;-85
2022/11/02 08:44:44;;;;;;;10.68;2.55;;;11.10;99.90;;;;;;4961103;28;20042;-86
2022/11/02 08:47:09;;;;;;;10.25;2.38;;;11.20;99.90;;;;;;4953297;28;20039;-85
2022/11/02 08:49:35;;;;;;;9.27;2.20;;;11.30;99.90;;;;;;4951679;28;20106;-85
2022/11/02 08:52:01;;;;;;;8.57;2.20;;;11.30;99.90;;;;;;4968195;28;20035;-85
2022/11/02 08:54:26;;;;;;;9.20;2.08;;;11.40;99.90;;;;;;4939619;28;20105;-86
2022/11/02 08:56:52;;;;;;;6.45;1.73;;;11.40;99.90;;;;;;4966573;28;20031;-87
2022/11/02 08:59:18;;;;;;;10.52;2.22;;;11.50;99.90;;;;;;4938694;28;20038;-86
2022/11/02 09:01:43;;;;;;;8.77;2.33;;;11.50;99.90;;;;;;4956907;28;20061;-85
2022/11/02 09:04:09;;;;;;;10.75;1.80;;;11.50;99.90;;;;;;4974320;28;20496;-86
2022/11/02 09:06:35;;;;;;;7.50;2.08;;;11.50;99.90;;;;;;4972641;28;20042;-86
2022/11/02 09:09:01;;;;;;;8.15;1.90;;;11.70;99.90;;;;;;4971679;28;20039;-86
2022/11/02 09:11:27;;;;;;;7.07;2.10;;;11.70;99.90;;;;;;4940784;28;20041;-86
2022/11/02 09:13:52;;;;;;;12.30;1.90;;;11.70;99.90;;;;;;4972368;28;20478;-86
2022/11/02 09:16:18;;;;;;;8.68;1.90;;;11.70;99.90;;;;;;4956599;28;20039;-86
2022/11/02 09:18:43;;;;;;;7.88;2.10;;;11.70;99.90;;;;;;4939359;28;20038;-86
2022/11/02 09:21:09;;;;;;;10.90;1.83;;;11.70;99.90;;;;;;4948536;28;20038;-86
2022/11/02 09:23:35;;;;;;;5.80;1.40;;;11.70;99.90;;;;;;4953879;28;20047;-87
2022/11/02 09:26:01;;;;;;;7.03;2.30;;;11.70;99.90;;;;;;4957541;28;20039;-86
2022/11/02 09:28:26;;;;;;;3.80;1.60;;;11.80;99.90;;;;;;4956339;28;20153;-86
2022/11/02 09:30:52;;;;;;;4.35;1.55;;;11.80;99.90;;;;;;4955560;28;20038;-86
2022/11/02 09:33:18;;;;;;;8.23;2.50;;;11.80;99.90;;;;;;4954416;28;20039;-86
2022/11/02 09:35:46;;;;;;;10.52;2.13;;;11.90;99.90;;;;;;4971954;28;20046;-86
2022/11/02 09:38:12;;;;;;;8.43;1.80;;;12.00;99.90;;;;;;4971719;28;20571;-86
2022/11/02 09:40:46;;;;;;;9.25;1.80;;;12.00;99.90;;;;;;4955586;28;20041;-85
2022/11/02 09:43:34;;;;;;;5.45;1.73;;;12.00;99.90;;;;;;4953191;28;20089;-86
2022/11/02 09:46:10;;;;;;;6.20;1.70;;;12.10;99.90;;;;;;4947310;28;20039;-86
2022/11/02 09:48:57;;;;;;;8.30;1.70;;;12.10;99.90;;;;;;4987674;28;20791;-86
2022/11/02 09:51:34;;;;;;;9.98;1.80;;;12.10;99.90;;;;;;4952883;28;20038;-85
2022/11/02 09:54:17;;;;;;;8.80;1.85;;;12.10;99.90;;;;;;4971349;28;20113;-85
2022/11/02 09:56:45;;;;;;;14.13;2.20;;;12.00;99.90;;;;;;4971819;28;20035;-85
2022/11/02 09:59:19;;;;;;;9.95;2.00;;;12.00;99.90;;;;;;4992004;28;20062;-85
2022/11/02 10:02:04;;;;;;;7.75;1.52;;;12.00;99.90;;;;;;4988546;28;20038;-86
2022/11/02 10:04:56;;;;;;;13.43;2.05;;;12.00;99.90;;;;;;4976998;28;20045;-86
2022/11/02 10:07:40;;;;;;;8.40;2.05;;;12.00;99.90;;;;;;4951556;28;20085;-86
2022/11/02 10:10:21;;;;;;;9.73;2.00;;;12.10;99.90;;;;;;4955227;28;20558;-85
2022/11/02 10:13:11;;;;;;;10.05;1.80;;;12.20;99.90;;;;;;4959074;28;20033;-86
2022/11/02 10:15:45;;;;;;;8.23;2.00;;;12.30;99.90;;;;;;4954345;28;20041;-86
2022/11/02 10:18:18;;;;;;;5.60;1.92;;;12.30;99.90;;;;;;4970957;28;20058;-85
2022/11/02 10:20:45;;;;;;;7.15;1.52;;;12.40;99.90;;;;;;4970824;28;20559;-86
2022/11/02 10:23:24;;;;;;;14.10;2.67;;;12.40;99.90;;;;;;4970528;28;20050;-85
2022/11/02 10:25:50;;;;;;;5.63;2.10;;;12.50;99.90;;;;;;4970932;28;20039;-86
2022/11/02 10:28:21;;;;;;;6.00;2.00;;;12.50;99.90;;;;;;4953901;28;20513;-85
2022/11/02 10:30:46;;;;;;;8.30;1.80;;;12.50;99.90;;;;;;4970980;28;20050;-86
2022/11/02 10:33:15;;;;;;;10.07;2.40;;;12.60;99.90;;;;;;4953481;28;20050;-86
2022/11/02 10:36:11;;;;;;;14.57;2.65;;;12.50;99.90;;;;;;4943263;28;20042;-86
2022/11/02 10:39:00;;;;;;;6.00;1.92;;;12.50;99.90;;;;;;4954245;28;20526;-86
2022/11/02 10:42:03;;;;;;;9.98;2.03;;;12.40;99.90;;;;;;4954948;28;20043;-86
2022/11/02 10:44:29;;;;;;;5.05;1.45;;;12.30;99.90;;;;;;4944857;28;20035;-86
2022/11/02 10:47:14;;;;;;;5.40;1.67;;;12.30;99.90;;;;;;4953746;28;20039;-85
2022/11/02 10:50:01;;;;;;;9.27;2.25;;;12.30;99.90;;;;;;4970565;28;20045;-85
2022/11/02 10:52:37;;;;;;;7.47;2.00;;;12.40;99.90;;;;;;4970256;28;20034;-86
2022/11/02 10:55:07;;;;;;;8.02;2.00;;;12.50;99.90;;;;;;4970484;28;20041;-86
2022/11/02 10:57:36;;;;;;;7.60;2.00;;;12.50;99.90;;;;;;4969477;28;20043;-85
2022/11/02 11:00:24;;;;;;;4.68;1.65;;;12.50;99.90;;;;;;4962267;28;20031;-86
2022/11/02 11:03:08;;;;;;;6.97;2.70;;;12.50;99.90;;;;;;4953974;28;20059;-86
2022/11/02 11:05:37;;;;;;;6.65;2.10;;;12.60;99.90;;;;;;4967710;28;20046;-86
2022/11/02 11:08:04;;;;;;;9.20;1.80;;;12.50;99.90;;;;;;4970506;28;20053;-86
2022/11/02 11:10:36;;;;;;;7.68;1.98;;;12.50;99.90;;;;;;4936988;28;20042;-86
2022/11/02 11:13:03;;;;;;;9.70;2.47;;;12.50;99.90;;;;;;4952780;28;20049;-86
2022/11/02 11:15:31;;;;;;;10.10;1.88;;;12.50;99.90;;;;;;4946403;28;20052;-86
2022/11/02 11:17:58;;;;;;;9.25;2.33;;;12.50;99.90;;;;;;4952278;28;20050;-86
2022/11/02 11:20:33;;;;;;;9.32;1.80;;;12.40;99.90;;;;;;4954172;28;20053;-86
2022/11/02 11:23:27;;;;;;;7.63;2.33;;;12.40;99.90;;;;;;4969159;28;20137;-86
2022/11/02 11:26:01;;;;;;;5.82;1.40;;;12.50;99.90;;;;;;4969341;28;20504;-86
2022/11/02 11:28:28;;;;;;;8.20;1.92;;;12.50;99.90;;;;;;4969981;28;20042;-85
2022/11/02 11:31:05;;;;;;;11.15;2.22;;;12.60;99.90;;;;;;4968243;28;20035;-86
2022/11/02 11:33:41;;;;;;;8.85;1.65;;;12.60;99.90;;;;;;4953588;28;20049;-86
2022/11/02 11:36:09;;;;;;;9.93;2.17;;;12.60;99.90;;;;;;4970130;28;20057;-86
2022/11/02 11:38:35;;;;;;;7.47;2.20;;;12.70;99.90;;;;;;4953126;28;20046;-85
2022/11/02 11:41:02;;;;;;;6.68;1.55;;;12.80;99.90;;;;;;4969759;28;20073;-86
2022/11/02 11:43:37;;;;;;;10.40;1.75;;;13.10;99.90;;;;;;4949520;28;20129;-87
2022/11/02 11:46:06;;;;;;;12.32;2.28;;;13.20;99.90;;;;;;4946507;28;20042;-86
2022/11/02 11:48:48;;;;;;;14.75;2.42;;;13.30;99.90;;;;;;4967694;28;20082;-86
2022/11/02 11:51:31;;;;;;;8.20;1.83;;;13.30;99.90;;;;;;4969572;28;20034;-86
2022/11/02 11:54:08;;;;;;;7.35;1.90;;;13.30;99.90;;;;;;4964195;28;20050;-86
2022/11/02 11:56:35;;;;;;;7.00;1.60;;;13.30;99.90;;;;;;4952725;28;20046;-87
2022/11/02 11:59:00;;;;;;;8.13;1.88;;;13.40;99.90;;;;;;4934804;28;20050;-86
2022/11/02 12:01:26;;;;;;;11.73;2.15;;;13.40;99.90;;;;;;4935530;28;20030;-86
2022/11/02 12:03:53;;;;;;;7.72;2.55;;;13.40;99.90;;;;;;4966930;28;20058;-85
2022/11/02 12:06:28;;;;;;;9.35;2.08;;;13.50;99.90;;;;;;4969275;28;20049;-86
2022/11/02 12:09:20;;;;;;;8.48;2.05;;;13.70;99.90;;;;;;4968873;28;20058;-86
2022/11/02 12:11:57;;;;;;;11.33;2.47;;;13.80;99.90;;;;;;4953310;28;20049;-86
2022/11/02 12:14:50;;;;;;;8.07;2.00;;;13.90;99.90;;;;;;4969221;28;20101;-86
2022/11/02 12:17:16;;;;;;;4.57;1.67;;;13.90;99.90;;;;;;4969115;28;20051;-86
2022/11/02 12:19:59;;;;;;;6.80;1.90;;;14.00;99.90;;;;;;4952675;28;20065;-85
2022/11/02 12:22:58;;;;;;;5.68;1.77;;;13.80;99.90;;;;;;4968617;28;20113;-85
2022/11/02 12:25:51;;;;;;;6.43;1.90;;;13.70;99.90;;;;;;4951082;28;20114;-85
2022/11/02 12:28:47;;;;;;;8.52;1.70;;;13.70;99.90;;;;;;4965326;28;20039;-85
2022/11/02 12:31:25;;;;;;;10.00;1.98;;;13.80;99.90;;;;;;4951948;28;20611;-86
2022/11/02 12:34:36;;;;;;;8.70;1.55;;;13.90;99.90;;;;;;4959183;28;20043;-85
2022/11/02 12:37:16;;;;;;;7.18;1.35;;;13.90;99.90;;;;;;4952017;28;20381;-85
2022/11/02 12:40:00;;;;;;;10.35;2.03;;;13.90;99.90;;;;;;4952266;28;20070;-85
2022/11/02 12:42:34;;;;;;;7.00;2.03;;;13.90;99.90;;;;;;4952240;28;20038;-85
2022/11/02 12:45:39;;;;;;;2.22;1.23;;;13.90;99.90;;;;;;4968842;28;20035;-86
2022/11/02 12:48:05;;;;;;;7.68;1.77;;;14.10;99.90;;;;;;4946476;28;20055;-85
2022/11/02 12:50:45;;;;;;;6.75;1.45;;;14.20;99.90;;;;;;4950531;28;20129;-86
2022/11/02 12:53:21;;;;;;;4.32;1.42;;;14.20;99.90;;;;;;4950523;28;20046;-86
2022/11/02 12:55:51;;;;;;;6.63;2.15;;;14.20;99.90;;;;;;4952033;28;20043;-86
2022/11/02 12:58:28;;;;;;;7.22;1.67;;;14.30;99.90;;;;;;4968684;28;20039;-85
2022/11/02 13:01:04;;;;;;;10.02;1.80;;;14.30;99.90;;;;;;4952663;28;20039;-85
2022/11/02 13:03:38;;;;;;;5.20;1.88;;;14.30;99.90;;;;;;4968864;28;20043;-86
2022/11/02 13:06:10;;;;;;;5.78;2.28;;;14.30;99.90;;;;;;4968866;28;20550;-85
2022/11/02 13:08:55;;;;;;;6.22;1.80;;;14.30;99.90;;;;;;4968695;28;20046;-85
2022/11/02 13:11:38;;;;;;;6.50;1.77;;;14.30;99.90;;;;;;4966911;28;20057;-85
2022/11/02 13:14:10;;;;;;;6.70;1.80;;;14.20;99.90;;;;;;4968455;28;20045;-85
2022/11/02 13:17:10;;;;;;;9.82;2.10;;;14.00;99.90;;;;;;4969084;28;20046;-85